地図

経路データ

SID SEASON NUMBER BASIN SUBBASIN NAME ISO_TIME NATURE LAT LON WMO_WIND WMO_PRES WMO_AGENCY TRACK_TYPE DIST2LAND LANDFALL IFLAG USA_AGENCY USA_ATCF_ID USA_LAT USA_LON USA_RECORD USA_STATUS USA_WIND USA_PRES USA_SSHS USA_R34_NE USA_R34_SE USA_R34_SW USA_R34_NW USA_R50_NE USA_R50_SE USA_R50_SW USA_R50_NW USA_R64_NE USA_R64_SE USA_R64_SW USA_R64_NW USA_POCI USA_ROCI USA_RMW USA_EYE TOKYO_LAT TOKYO_LON TOKYO_GRADE TOKYO_WIND TOKYO_PRES TOKYO_R50_DIR TOKYO_R50_LONG TOKYO_R50_SHORT TOKYO_R30_DIR TOKYO_R30_LONG TOKYO_R30_SHORT TOKYO_LAND CMA_LAT CMA_LON CMA_CAT CMA_WIND CMA_PRES HKO_LAT HKO_LON HKO_CAT HKO_WIND HKO_PRES NEWDELHI_LAT NEWDELHI_LON NEWDELHI_GRADE NEWDELHI_WIND NEWDELHI_PRES NEWDELHI_CI NEWDELHI_DP NEWDELHI_POCI REUNION_LAT REUNION_LON REUNION_TYPE REUNION_WIND REUNION_PRES REUNION_TNUM REUNION_CI REUNION_RMW REUNION_R34_NE REUNION_R34_SE REUNION_R34_SW REUNION_R34_NW REUNION_R50_NE REUNION_R50_SE REUNION_R50_SW REUNION_R50_NW REUNION_R64_NE REUNION_R64_SE REUNION_R64_SW REUNION_R64_NW BOM_LAT BOM_LON BOM_TYPE BOM_WIND BOM_PRES BOM_TNUM BOM_CI BOM_RMW BOM_R34_NE BOM_R34_SE BOM_R34_SW BOM_R34_NW BOM_R50_NE BOM_R50_SE BOM_R50_SW BOM_R50_NW BOM_R64_NE BOM_R64_SE BOM_R64_SW BOM_R64_NW BOM_ROCI BOM_POCI BOM_EYE BOM_POS_METHOD BOM_PRES_METHOD NADI_LAT NADI_LON NADI_CAT NADI_WIND NADI_PRES WELLINGTON_LAT WELLINGTON_LON WELLINGTON_WIND WELLINGTON_PRES DS824_LAT DS824_LON DS824_STAGE DS824_WIND DS824_PRES TD9636_LAT TD9636_LON TD9636_STAGE TD9636_WIND TD9636_PRES TD9635_LAT TD9635_LON TD9635_WIND TD9635_PRES TD9635_ROCI NEUMANN_LAT NEUMANN_LON NEUMANN_CLASS NEUMANN_WIND NEUMANN_PRES MLC_LAT MLC_LON MLC_CLASS MLC_WIND MLC_PRES USA_GUST BOM_GUST BOM_GUST_PER REUNION_GUST REUNION_GUST_PER USA_SEAHGT USA_SEARAD_NE USA_SEARAD_SE USA_SEARAD_SW USA_SEARAD_NW STORM_SPEED STORM_DIR
1893042S15063 1893 7 SI MM NOT_NAMED 1893-02-11 06:00:00 NR -14.7000 63.1000 reunion main 832 825 _____O________ -1 -14.7000 63.1000 99 9.90000 2 251
1893042S15063 1893 7 SI MM NOT_NAMED 1893-02-11 09:00:00 NR -14.7417 62.9784 main 825 809 _____P________ -1 -14.7417 62.9784 99 3 251
1893042S15063 1893 7 SI MM NOT_NAMED 1893-02-11 12:00:00 NR -14.7842 62.8494 main 802 795 _____P________ -1 -14.7842 62.8494 99 3 252
1893042S15063 1893 7 SI MM NOT_NAMED 1893-02-11 15:00:00 NR -14.8282 62.7055 main 795 773 _____P________ -1 -14.8282 62.7055 99 3 253
1893042S15063 1893 7 SI MM NOT_NAMED 1893-02-11 18:00:00 NR -14.8747 62.5392 main 773 766 _____P________ -1 -14.8747 62.5392 99 4 255
1893042S15063 1893 7 SI MM NOT_NAMED 1893-02-11 21:00:00 NR -14.9244 62.3429 main 759 736 _____P________ -1 -14.9244 62.3429 99 4 256
1893042S15063 1893 7 SI MM NOT_NAMED 1893-02-12 00:00:00 NR -14.9781 62.1094 main 736 717 _____P________ -1 -14.9781 62.1094 99 5 257
1893042S15063 1893 7 SI MM NOT_NAMED 1893-02-12 03:00:00 NR -15.0364 61.8309 main 717 689 _____P________ -1 -15.0364 61.8309 99 6 258
1893042S15063 1893 7 SI MM NOT_NAMED 1893-02-12 06:00:00 NR -15.1000 61.5000 reunion main 689 656 _____O________ -1 -15.1000 61.5000 99 9.90000 7 259
1893042S15063 1893 7 SI MM NOT_NAMED 1893-02-12 09:00:00 NR -15.1695 61.1128 main 656 633 _____P________ -1 -15.1695 61.1128 99 8 260
1893042S15063 1893 7 SI MM NOT_NAMED 1893-02-12 12:00:00 NR -15.2457 60.6808 main 633 598 _____P________ -1 -15.2457 60.6808 99 9 259
1893042S15063 1893 7 SI MM NOT_NAMED 1893-02-12 15:00:00 NR -15.3295 60.2192 main 598 570 _____P________ -1 -15.3295 60.2192 99 9 259
1893042S15063 1893 7 SI MM NOT_NAMED 1893-02-12 18:00:00 NR -15.4218 59.7431 main 566 541 _____P________ -1 -15.4218 59.7431 99 9 258
1893042S15063 1893 7 SI MM NOT_NAMED 1893-02-12 21:00:00 NR -15.5237 59.2678 main 541 516 _____P________ -1 -15.5237 59.2678 99 9 257
1893042S15063 1893 7 SI MM NOT_NAMED 1893-02-13 00:00:00 NR -15.6364 58.8087 main 516 486 _____P________ -1 -15.6364 58.8087 99 9 254
1893042S15063 1893 7 SI MM NOT_NAMED 1893-02-13 03:00:00 NR -15.7614 58.3810 main 486 471 _____P________ -1 -15.7614 58.3810 99 8 251
1893042S15063 1893 7 SI MM NOT_NAMED 1893-02-13 06:00:00 NR -15.9000 58.0000 reunion main 471 458 _____O________ -1 -15.9000 58.0000 99 9.90000 8 247
1893042S15063 1893 7 SI MM NOT_NAMED 1893-02-13 09:00:00 NR -16.0540 57.6646 main 447 436 _____P________ -1 -16.0540 57.6646 99 7 242
1893042S15063 1893 7 SI MM NOT_NAMED 1893-02-13 12:00:00 NR -16.2230 57.3646 main 436 415 _____P________ -1 -16.2230 57.3646 99 6 237
1893042S15063 1893 7 SI MM NOT_NAMED 1893-02-13 15:00:00 NR -16.4044 57.1035 main 416 396 _____P________ -1 -16.4044 57.1035 99 6 231
1893042S15063 1893 7 SI MM NOT_NAMED 1893-02-13 18:00:00 NR -16.5954 56.8844 main 396 378 _____P________ -1 -16.5954 56.8844 99 5 224
1893042S15063 1893 7 SI MM NOT_NAMED 1893-02-13 21:00:00 NR -16.7933 56.7111 main 378 359 _____P________ -1 -16.7933 56.7111 99 5 215
1893042S15063 1893 7 SI MM NOT_NAMED 1893-02-14 00:00:00 NR -16.9952 56.5869 main 359 341 _____P________ -1 -16.9952 56.5869 99 4 205
1893042S15063 1893 7 SI MM NOT_NAMED 1893-02-14 03:00:00 NR -17.1984 56.5153 main 341 319 _____P________ -1 -17.1984 56.5153 99 4 191
1893042S15063 1893 7 SI MM NOT_NAMED 1893-02-14 06:00:00 NR -17.4000 56.5000 reunion main 319 298 _____O________ -1 -17.4000 56.5000 99 9.90000 4 0
1893042S15063 1893 7 SI MM NOT_NAMED 1893-02-14 09:00:00 NR -17.6028 56.5428 main 298 274 _____P________ -1 -17.6028 56.5428 99 4 161
1893042S15063 1893 7 SI MM NOT_NAMED 1893-02-14 12:00:00 NR -17.8076 56.6474 main 274 246 _____P________ -1 -17.8076 56.6474 99 5 149
1893042S15063 1893 7 SI MM NOT_NAMED 1893-02-14 15:00:00 NR -18.0112 56.8020 main 246 218 _____P________ -1 -18.0112 56.8020 99 5 141
1893042S15063 1893 7 SI MM NOT_NAMED 1893-02-14 18:00:00 NR -18.2105 56.9945 main 218 192 _____P________ -1 -18.2105 56.9945 99 6 135
1893042S15063 1893 7 SI MM NOT_NAMED 1893-02-14 21:00:00 NR -18.4021 57.2128 main 192 168 _____P________ -1 -18.4021 57.2128 99 6 131
1893042S15063 1893 7 SI MM NOT_NAMED 1893-02-15 00:00:00 NR -18.5830 57.4446 main 168 156 _____P________ -1 -18.5830 57.4446 99 6 128
1893042S15063 1893 7 SI MM NOT_NAMED 1893-02-15 03:00:00 NR -18.7500 57.6778 main 156 134 _____P________ -1 -18.7500 57.6778 99 5 126
1893042S15063 1893 7 SI MM NOT_NAMED 1893-02-15 06:00:00 NR -18.9000 57.9000 reunion main 135 126 _____O________ -1 -18.9000 57.9000 99 9.90000 4 128
1893042S15063 1893 7 SI MM NOT_NAMED 1893-02-15 09:00:00 NR -19.0184 58.0352 main 126 119 _____P________ -1 -19.0184 58.0352 99 3 131
1893042S15063 1893 7 SI MM NOT_NAMED 1893-02-15 12:00:00 NR -19.1192 58.1631 main 123 113 _____P________ -1 -19.1192 58.1631 99 3 128
1893042S15063 1893 7 SI MM NOT_NAMED 1893-02-15 15:00:00 NR -19.2069 58.2893 main 118 115 _____P________ -1 -19.2069 58.2893 99 3 124
1893042S15063 1893 7 SI MM NOT_NAMED 1893-02-15 18:00:00 NR -19.2858 58.4197 main 115 114 _____P________ -1 -19.2858 58.4197 99 3 121
1893042S15063 1893 7 SI MM NOT_NAMED 1893-02-15 21:00:00 NR -19.3603 58.5601 main 122 122 _____P________ -1 -19.3603 58.5601 99 3 118
1893042S15063 1893 7 SI MM NOT_NAMED 1893-02-16 00:00:00 NR -19.4346 58.7163 main 130 130 _____P________ -1 -19.4346 58.7163 99 4 116
1893042S15063 1893 7 SI MM NOT_NAMED 1893-02-16 03:00:00 NR -19.5131 58.8943 main 142 142 _____P________ -1 -19.5131 58.8943 99 4 115
1893042S15063 1893 7 SI MM NOT_NAMED 1893-02-16 06:00:00 NR -19.6000 59.1000 reunion main 156 156 _____O________ -1 -19.6000 59.1000 99 9.90000 5 115
1893042S15063 1893 7 SI MM NOT_NAMED 1893-02-16 09:00:00 NR -19.7113 59.3481 main 170 170 _____P________ -1 -19.7113 59.3481 99 5 115
1893042S15063 1893 7 SI MM NOT_NAMED 1893-02-16 12:00:00 NR -19.8289 59.6233 main 196 196 _____P________ -1 -19.8289 59.6233 99 6 114
1893042S15063 1893 7 SI MM NOT_NAMED 1893-02-16 15:00:00 NR -19.9515 59.9211 main 221 221 _____P________ -1 -19.9515 59.9211 99 6 113
1893042S15063 1893 7 SI MM NOT_NAMED 1893-02-16 18:00:00 NR -20.0780 60.2374 main 251 251 _____P________ -1 -20.0780 60.2374 99 7 113
1893042S15063 1893 7 SI MM NOT_NAMED 1893-02-16 21:00:00 NR -20.2072 60.5678 main 292 292 _____P________ -1 -20.2072 60.5678 99 7 112
1893042S15063 1893 7 SI MM NOT_NAMED 1893-02-17 00:00:00 NR -20.3380 60.9079 main 323 323 _____P________ -1 -20.3380 60.9079 99 7 112
1893042S15063 1893 7 SI MM NOT_NAMED 1893-02-17 03:00:00 NR -20.4693 61.2534 main 365 365 _____P________ -1 -20.4693 61.2534 99 7 112
1893042S15063 1893 7 SI MM NOT_NAMED 1893-02-17 06:00:00 NR -20.6000 61.6000 reunion main 397 397 _____O________ -1 -20.6000 61.6000 99 9.90000 7 112
1893042S15063 1893 7 SI MM NOT_NAMED 1893-02-17 09:00:00 NR -20.7293 61.9440 main 429 429 _____P________ -1 -20.7293 61.9440 99 7 112
1893042S15063 1893 7 SI MM NOT_NAMED 1893-02-17 12:00:00 NR -20.8571 62.2852 main 473 473 _____P________ -1 -20.8571 62.2852 99 7 112
1893042S15063 1893 7 SI MM NOT_NAMED 1893-02-17 15:00:00 NR -20.9836 62.6241 main 505 505 _____P________ -1 -20.9836 62.6241 99 7 112
1893042S15063 1893 7 SI MM NOT_NAMED 1893-02-17 18:00:00 NR -21.1088 62.9610 main 548 548 _____P________ -1 -21.1088 62.9610 99 7 112
1893042S15063 1893 7 SI MM NOT_NAMED 1893-02-17 21:00:00 NR -21.2330 63.2966 main 580 580 _____P________ -1 -21.2330 63.2966 99 7 112
1893042S15063 1893 7 SI MM NOT_NAMED 1893-02-18 00:00:00 NR -21.3562 63.6314 main 614 614 _____P________ -1 -21.3562 63.6314 99 7 112
1893042S15063 1893 7 SI MM NOT_NAMED 1893-02-18 03:00:00 NR -21.4785 63.9657 main 657 657 _____P________ -1 -21.4785 63.9657 99 7 111
1893042S15063 1893 7 SI MM NOT_NAMED 1893-02-18 06:00:00 NR -21.6000 64.3000 reunion main 690 _____O________ -1 -21.6000 64.3000 99 9.90000 7 111

IBTrACS Databaseについて

本データベースは、米国NOAAが公開する1842年以降の世界の熱帯低気圧のベストトラックデータアーカイブInternational Best Track Archive for Climate Stewardship (IBTrACS)を、ウェブで閲覧しやすい形式に変換したものです。

最終更新日:2021-11-26